sensor_id;sensor_type;location;lat;lon;timestamp;pressure;altitude;pressure_sealevel;temperature;humidity
40245;BME280;25963;42.694;23.600;2023-04-03T00:01:07;94636.25;;;4.40;100.00
40245;BME280;25963;42.694;23.600;2023-04-03T00:03:33;94631.03;;;4.40;100.00
40245;BME280;25963;42.694;23.600;2023-04-03T00:05:59;94637.84;;;4.41;100.00
40245;BME280;25963;42.694;23.600;2023-04-03T00:08:25;94601.00;;;4.23;100.00
40245;BME280;25963;42.694;23.600;2023-04-03T00:10:50;94615.09;;;4.28;100.00
40245;BME280;25963;42.694;23.600;2023-04-03T00:13:16;94621.34;;;4.34;100.00
40245;BME280;25963;42.694;23.600;2023-04-03T00:15:42;94613.28;;;4.29;100.00
40245;BME280;25963;42.694;23.600;2023-04-03T00:18:08;94619.50;;;4.28;100.00
40245;BME280;25963;42.694;23.600;2023-04-03T00:20:34;94577.19;;;4.04;100.00
40245;BME280;25963;42.694;23.600;2023-04-03T00:23:00;94603.34;;;4.18;100.00
40245;BME280;25963;42.694;23.600;2023-04-03T00:25:26;94589.09;;;4.14;100.00
40245;BME280;25963;42.694;23.600;2023-04-03T00:27:52;94574.78;;;4.09;100.00
40245;BME280;25963;42.694;23.600;2023-04-03T00:30:19;94596.56;;;4.23;100.00
40245;BME280;25963;42.694;23.600;2023-04-03T00:32:47;94595.78;;;4.23;100.00
40245;BME280;25963;42.694;23.600;2023-04-03T00:35:13;94594.34;;;4.20;100.00
40245;BME280;25963;42.694;23.600;2023-04-03T00:37:41;94588.97;;;4.00;100.00
40245;BME280;25963;42.694;23.600;2023-04-03T00:40:08;94593.16;;;3.66;100.00
40245;BME280;25963;42.694;23.600;2023-04-03T00:42:36;94606.97;;;3.88;100.00
40245;BME280;25963;42.694;23.600;2023-04-03T00:47:27;94570.84;;;3.64;100.00
40245;BME280;25963;42.694;23.600;2023-04-03T00:49:53;94606.16;;;3.88;100.00
40245;BME280;25963;42.694;23.600;2023-04-03T00:52:21;94614.41;;;3.92;100.00
40245;BME280;25963;42.694;23.600;2023-04-03T00:54:50;94607.34;;;3.85;100.00
40245;BME280;25963;42.694;23.600;2023-04-03T00:57:17;94614.94;;;3.59;100.00
40245;BME280;25963;42.694;23.600;2023-04-03T00:59:46;94620.28;;;3.72;100.00
40245;BME280;25963;42.694;23.600;2023-04-03T01:02:14;94599.13;;;3.60;100.00
40245;BME280;25963;42.694;23.600;2023-04-03T01:04:42;94619.91;;;3.75;100.00
40245;BME280;25963;42.694;23.600;2023-04-03T01:07:19;94606.06;;;3.32;100.00
40245;BME280;25963;42.694;23.600;2023-04-03T01:09:47;94624.22;;;3.40;100.00
40245;BME280;25963;42.694;23.600;2023-04-03T01:12:23;94628.34;;;3.56;100.00
40245;BME280;25963;42.694;23.600;2023-04-03T01:14:52;94626.00;;;3.61;100.00
40245;BME280;25963;42.694;23.600;2023-04-03T01:22:53;94615.53;;;3.33;100.00
40245;BME280;25963;42.694;23.600;2023-04-03T01:25:21;94604.75;;;3.00;100.00
40245;BME280;25963;42.694;23.600;2023-04-03T01:27:47;94620.63;;;3.05;100.00
40245;BME280;25963;42.694;23.600;2023-04-03T01:30:14;94620.22;;;2.86;100.00
40245;BME280;25963;42.694;23.600;2023-04-03T01:32:41;94631.91;;;2.90;100.00
40245;BME280;25963;42.694;23.600;2023-04-03T01:35:08;94631.09;;;2.90;100.00
40245;BME280;25963;42.694;23.600;2023-04-03T01:37:35;94616.81;;;2.86;100.00
40245;BME280;25963;42.694;23.600;2023-04-03T01:40:00;94615.81;;;2.87;100.00
40245;BME280;25963;42.694;23.600;2023-04-03T01:42:26;94619.13;;;2.95;100.00
40245;BME280;25963;42.694;23.600;2023-04-03T01:44:51;94619.88;;;2.89;100.00
40245;BME280;25963;42.694;23.600;2023-04-03T01:47:17;94628.00;;;2.65;100.00
40245;BME280;25963;42.694;23.600;2023-04-03T01:49:42;94600.06;;;2.73;100.00
40245;BME280;25963;42.694;23.600;2023-04-03T01:52:08;94604.97;;;2.83;100.00
40245;BME280;25963;42.694;23.600;2023-04-03T01:54:33;94622.31;;;2.91;100.00
40245;BME280;25963;42.694;23.600;2023-04-03T01:56:59;94625.50;;;2.93;100.00
40245;BME280;25963;42.694;23.600;2023-04-03T01:59:24;94629.81;;;3.01;100.00
40245;BME280;25963;42.694;23.600;2023-04-03T02:01:50;94637.91;;;3.06;100.00
40245;BME280;25963;42.694;23.600;2023-04-03T02:04:15;94637.63;;;3.01;100.00
40245;BME280;25963;42.694;23.600;2023-04-03T02:06:41;94627.47;;;3.06;100.00
40245;BME280;25963;42.694;23.600;2023-04-03T02:09:06;94630.81;;;3.00;100.00
40245;BME280;25963;42.694;23.600;2023-04-03T02:11:32;94631.78;;;2.98;100.00
40245;BME280;25963;42.694;23.600;2023-04-03T02:13:58;94597.19;;;2.68;100.00
40245;BME280;25963;42.694;23.600;2023-04-03T02:16:23;94631.44;;;2.87;100.00
40245;BME280;25963;42.694;23.600;2023-04-03T02:18:49;94594.22;;;2.71;100.00
40245;BME280;25963;42.694;23.600;2023-04-03T02:21:15;94617.66;;;2.71;100.00
40245;BME280;25963;42.694;23.600;2023-04-03T02:23:40;94625.28;;;2.73;100.00
40245;BME280;25963;42.694;23.600;2023-04-03T02:26:09;94626.00;;;2.82;100.00
40245;BME280;25963;42.694;23.600;2023-04-03T02:28:34;94622.75;;;2.80;100.00
40245;BME280;25963;42.694;23.600;2023-04-03T02:31:00;94627.69;;;2.74;100.00
40245;BME280;25963;42.694;23.600;2023-04-03T02:33:26;94618.91;;;2.76;100.00
40245;BME280;25963;42.694;23.600;2023-04-03T02:35:55;94620.16;;;2.80;100.00
40245;BME280;25963;42.694;23.600;2023-04-03T02:38:21;94620.25;;;2.71;100.00
40245;BME280;25963;42.694;23.600;2023-04-03T02:40:47;94599.72;;;2.62;100.00
40245;BME280;25963;42.694;23.600;2023-04-03T02:43:12;94612.44;;;2.71;100.00
40245;BME280;25963;42.694;23.600;2023-04-03T02:45:38;94609.69;;;2.58;100.00
40245;BME280;25963;42.694;23.600;2023-04-03T02:48:03;94607.34;;;2.63;100.00
40245;BME280;25963;42.694;23.600;2023-04-03T02:50:29;94596.09;;;2.63;100.00
40245;BME280;25963;42.694;23.600;2023-04-03T02:52:55;94599.53;;;2.63;100.00
40245;BME280;25963;42.694;23.600;2023-04-03T02:55:20;94593.06;;;2.44;100.00
40245;BME280;25963;42.694;23.600;2023-04-03T02:57:46;94609.50;;;2.15;100.00
40245;BME280;25963;42.694;23.600;2023-04-03T03:00:11;94599.91;;;2.31;100.00
40245;BME280;25963;42.694;23.600;2023-04-03T03:02:37;94597.31;;;2.16;100.00
40245;BME280;25963;42.694;23.600;2023-04-03T03:05:03;94604.75;;;2.34;100.00
40245;BME280;25963;42.694;23.600;2023-04-03T03:07:28;94579.09;;;2.16;100.00
40245;BME280;25963;42.694;23.600;2023-04-03T03:09:54;94599.44;;;2.27;100.00
40245;BME280;25963;42.694;23.600;2023-04-03T03:12:19;94600.16;;;2.21;100.00
40245;BME280;25963;42.694;23.600;2023-04-03T03:14:49;94581.78;;;2.22;100.00
40245;BME280;25963;42.694;23.600;2023-04-03T03:17:15;94602.06;;;2.42;100.00
40245;BME280;25963;42.694;23.600;2023-04-03T03:19:41;94600.44;;;2.41;100.00
40245;BME280;25963;42.694;23.600;2023-04-03T03:22:07;94592.97;;;1.93;100.00
40245;BME280;25963;42.694;23.600;2023-04-03T03:24:32;94600.09;;;2.14;100.00
40245;BME280;25963;42.694;23.600;2023-04-03T03:26:57;94597.84;;;2.26;100.00
40245;BME280;25963;42.694;23.600;2023-04-03T03:29:23;94582.16;;;2.19;100.00
40245;BME280;25963;42.694;23.600;2023-04-03T03:31:48;94584.91;;;2.18;100.00
40245;BME280;25963;42.694;23.600;2023-04-03T03:34:14;94589.50;;;2.01;100.00
40245;BME280;25963;42.694;23.600;2023-04-03T03:36:40;94586.78;;;2.09;100.00
40245;BME280;25963;42.694;23.600;2023-04-03T03:39:06;94562.78;;;2.07;100.00
40245;BME280;25963;42.694;23.600;2023-04-03T03:41:32;94571.38;;;2.08;100.00
40245;BME280;25963;42.694;23.600;2023-04-03T03:43:57;94570.81;;;2.12;100.00
40245;BME280;25963;42.694;23.600;2023-04-03T03:46:23;94553.59;;;1.96;100.00
40245;BME280;25963;42.694;23.600;2023-04-03T03:48:48;94582.94;;;2.20;100.00
40245;BME280;25963;42.694;23.600;2023-04-03T03:51:13;94587.06;;;2.29;100.00
40245;BME280;25963;42.694;23.600;2023-04-03T03:53:39;94588.06;;;2.43;100.00
40245;BME280;25963;42.694;23.600;2023-04-03T03:56:05;94595.69;;;2.44;100.00
40245;BME280;25963;42.694;23.600;2023-04-03T03:58:31;94576.94;;;2.19;100.00
40245;BME280;25963;42.694;23.600;2023-04-03T04:01:00;94576.13;;;2.34;100.00
40245;BME280;25963;42.694;23.600;2023-04-03T04:03:26;94550.00;;;2.12;100.00
40245;BME280;25963;42.694;23.600;2023-04-03T04:05:51;94583.66;;;2.14;100.00
40245;BME280;25963;42.694;23.600;2023-04-03T04:08:17;94592.63;;;2.11;100.00
40245;BME280;25963;42.694;23.600;2023-04-03T04:10:42;94580.06;;;2.00;100.00
40245;BME280;25963;42.694;23.600;2023-04-03T04:13:08;94586.19;;;2.22;100.00
40245;BME280;25963;42.694;23.600;2023-04-03T04:15:33;94576.94;;;2.19;100.00
40245;BME280;25963;42.694;23.600;2023-04-03T04:17:59;94581.16;;;2.20;100.00
40245;BME280;25963;42.694;23.600;2023-04-03T04:20:24;94594.44;;;2.25;100.00
40245;BME280;25963;42.694;23.600;2023-04-03T04:22:50;94599.28;;;2.28;100.00
40245;BME280;25963;42.694;23.600;2023-04-03T04:25:16;94597.41;;;2.22;100.00
40245;BME280;25963;42.694;23.600;2023-04-03T04:27:41;94599.72;;;2.32;100.00
40245;BME280;25963;42.694;23.600;2023-04-03T04:30:07;94593.44;;;2.26;100.00
40245;BME280;25963;42.694;23.600;2023-04-03T04:32:33;94594.34;;;2.34;100.00
40245;BME280;25963;42.694;23.600;2023-04-03T04:34:59;94605.00;;;2.39;100.00
40245;BME280;25963;42.694;23.600;2023-04-03T04:37:24;94613.19;;;2.36;100.00
40245;BME280;25963;42.694;23.600;2023-04-03T04:39:50;94613.75;;;2.46;100.00
40245;BME280;25963;42.694;23.600;2023-04-03T04:42:16;94618.28;;;2.59;100.00
40245;BME280;25963;42.694;23.600;2023-04-03T04:44:42;94598.09;;;2.61;100.00
40245;BME280;25963;42.694;23.600;2023-04-03T04:47:07;94620.78;;;2.82;100.00
40245;BME280;25963;42.694;23.600;2023-04-03T04:49:33;94593.13;;;2.66;100.00
40245;BME280;25963;42.694;23.600;2023-04-03T04:51:58;94618.72;;;2.77;100.00
40245;BME280;25963;42.694;23.600;2023-04-03T04:54:24;94622.56;;;2.81;100.00
40245;BME280;25963;42.694;23.600;2023-04-03T04:56:49;94618.00;;;2.83;100.00
40245;BME280;25963;42.694;23.600;2023-04-03T04:59:15;94615.47;;;2.75;100.00
40245;BME280;25963;42.694;23.600;2023-04-03T05:01:40;94634.66;;;3.04;100.00
40245;BME280;25963;42.694;23.600;2023-04-03T05:04:06;94626.69;;;3.05;100.00
40245;BME280;25963;42.694;23.600;2023-04-03T05:06:31;94649.47;;;3.18;100.00
40245;BME280;25963;42.694;23.600;2023-04-03T05:08:57;94625.38;;;3.16;100.00
40245;BME280;25963;42.694;23.600;2023-04-03T05:11:24;94633.19;;;3.16;100.00
40245;BME280;25963;42.694;23.600;2023-04-03T05:13:59;94642.94;;;3.29;100.00
40245;BME280;25963;42.694;23.600;2023-04-03T05:16:25;94664.44;;;3.31;100.00
40245;BME280;25963;42.694;23.600;2023-04-03T05:18:50;94651.13;;;3.26;100.00
40245;BME280;25963;42.694;23.600;2023-04-03T05:21:16;94669.28;;;3.34;100.00
40245;BME280;25963;42.694;23.600;2023-04-03T05:23:43;94668.97;;;3.43;100.00
40245;BME280;25963;42.694;23.600;2023-04-03T05:26:09;94660.22;;;3.51;100.00
40245;BME280;25963;42.694;23.600;2023-04-03T05:28:34;94661.34;;;3.63;100.00
40245;BME280;25963;42.694;23.600;2023-04-03T05:31:00;94658.38;;;3.66;100.00
40245;BME280;25963;42.694;23.600;2023-04-03T05:33:26;94658.84;;;3.77;100.00
40245;BME280;25963;42.694;23.600;2023-04-03T05:35:52;94667.44;;;3.92;100.00
40245;BME280;25963;42.694;23.600;2023-04-03T05:38:18;94653.03;;;4.03;100.00
40245;BME280;25963;42.694;23.600;2023-04-03T05:40:44;94647.97;;;4.23;100.00
40245;BME280;25963;42.694;23.600;2023-04-03T05:43:09;94650.88;;;4.34;100.00
40245;BME280;25963;42.694;23.600;2023-04-03T05:45:35;94624.78;;;4.41;100.00
40245;BME280;25963;42.694;23.600;2023-04-03T05:48:01;94652.19;;;4.52;100.00
40245;BME280;25963;42.694;23.600;2023-04-03T05:50:26;94656.28;;;4.68;100.00
40245;BME280;25963;42.694;23.600;2023-04-03T05:52:53;94642.06;;;4.77;100.00
40245;BME280;25963;42.694;23.600;2023-04-03T05:55:21;94634.66;;;4.87;100.00
40245;BME280;25963;42.694;23.600;2023-04-03T05:57:46;94635.09;;;4.91;100.00
40245;BME280;25963;42.694;23.600;2023-04-03T06:00:16;94639.59;;;5.10;100.00
40245;BME280;25963;42.694;23.600;2023-04-03T06:02:50;94630.38;;;5.21;100.00
40245;BME280;25963;42.694;23.600;2023-04-03T06:05:31;94614.53;;;5.42;100.00
40245;BME280;25963;42.694;23.600;2023-04-03T06:07:57;94615.56;;;5.55;100.00
40245;BME280;25963;42.694;23.600;2023-04-03T06:10:23;94614.56;;;5.82;100.00
40245;BME280;25963;42.694;23.600;2023-04-03T06:12:48;94599.47;;;5.91;100.00
40245;BME280;25963;42.694;23.600;2023-04-03T06:15:14;94604.34;;;6.14;100.00
40245;BME280;25963;42.694;23.600;2023-04-03T06:17:46;94615.16;;;6.44;100.00
40245;BME280;25963;42.694;23.600;2023-04-03T06:20:11;94622.75;;;6.72;100.00
40245;BME280;25963;42.694;23.600;2023-04-03T06:22:37;94608.59;;;6.86;100.00
40245;BME280;25963;42.694;23.600;2023-04-03T06:25:03;94613.72;;;7.13;100.00
40245;BME280;25963;42.694;23.600;2023-04-03T06:27:28;94612.81;;;7.32;100.00
40245;BME280;25963;42.694;23.600;2023-04-03T06:29:54;94614.25;;;7.28;100.00
40245;BME280;25963;42.694;23.600;2023-04-03T06:32:19;94621.38;;;7.21;100.00
40245;BME280;25963;42.694;23.600;2023-04-03T06:34:45;94614.22;;;7.35;100.00
40245;BME280;25963;42.694;23.600;2023-04-03T06:37:22;94625.44;;;7.49;100.00
40245;BME280;25963;42.694;23.600;2023-04-03T06:39:51;94625.16;;;7.64;100.00
40245;BME280;25963;42.694;23.600;2023-04-03T06:42:17;94636.75;;;7.81;100.00
40245;BME280;25963;42.694;23.600;2023-04-03T06:44:43;94628.41;;;7.91;100.00
40245;BME280;25963;42.694;23.600;2023-04-03T06:47:11;94627.56;;;7.97;100.00
40245;BME280;25963;42.694;23.600;2023-04-03T06:49:37;94627.72;;;8.02;100.00
40245;BME280;25963;42.694;23.600;2023-04-03T06:52:03;94633.94;;;8.33;100.00
40245;BME280;25963;42.694;23.600;2023-04-03T06:54:30;94643.59;;;8.39;100.00
40245;BME280;25963;42.694;23.600;2023-04-03T06:56:56;94640.91;;;8.45;100.00
40245;BME280;25963;42.694;23.600;2023-04-03T06:59:22;94639.25;;;8.51;100.00
40245;BME280;25963;42.694;23.600;2023-04-03T07:01:48;94628.84;;;8.38;100.00
40245;BME280;25963;42.694;23.600;2023-04-03T07:04:14;94632.91;;;8.59;100.00
40245;BME280;25963;42.694;23.600;2023-04-03T07:06:39;94624.28;;;8.70;100.00
40245;BME280;25963;42.694;23.600;2023-04-03T07:09:05;94630.50;;;8.76;100.00
40245;BME280;25963;42.694;23.600;2023-04-03T07:11:31;94643.34;;;8.47;99.79
40245;BME280;25963;42.694;23.600;2023-04-03T07:13:56;94636.44;;;8.71;100.00
40245;BME280;25963;42.694;23.600;2023-04-03T07:16:25;94628.19;;;8.86;100.00
40245;BME280;25963;42.694;23.600;2023-04-03T07:18:50;94651.25;;;9.02;99.31
40245;BME280;25963;42.694;23.600;2023-04-03T07:21:16;94636.13;;;9.16;100.00
40245;BME280;25963;42.694;23.600;2023-04-03T07:23:44;94636.25;;;9.40;98.40
40245;BME280;25963;42.694;23.600;2023-04-03T07:26:10;94654.94;;;9.50;91.86
40245;BME280;25963;42.694;23.600;2023-04-03T07:28:36;94641.13;;;9.66;96.00
40245;BME280;25963;42.694;23.600;2023-04-03T07:31:05;94615.72;;;9.72;89.32
40245;BME280;25963;42.694;23.600;2023-04-03T07:33:33;94616.59;;;9.96;91.30
40245;BME280;25963;42.694;23.600;2023-04-03T07:36:00;94626.91;;;9.97;87.23
40245;BME280;25963;42.694;23.600;2023-04-03T07:38:26;94618.16;;;10.27;87.95
40245;BME280;25963;42.694;23.600;2023-04-03T07:40:51;94605.72;;;10.04;84.41
40245;BME280;25963;42.694;23.600;2023-04-03T07:43:18;94617.13;;;10.40;85.37
40245;BME280;25963;42.694;23.600;2023-04-03T07:45:45;94604.63;;;10.59;81.90
40245;BME280;25963;42.694;23.600;2023-04-03T07:48:12;94601.97;;;10.70;82.32
40245;BME280;25963;42.694;23.600;2023-04-03T07:50:40;94586.88;;;10.54;80.87
40245;BME280;25963;42.694;23.600;2023-04-03T07:53:05;94605.28;;;10.89;81.98
40245;BME280;25963;42.694;23.600;2023-04-03T07:55:32;94599.78;;;10.79;82.64
40245;BME280;25963;42.694;23.600;2023-04-03T07:57:57;94594.75;;;11.18;89.19
40245;BME280;25963;42.694;23.600;2023-04-03T08:00:23;94602.97;;;11.33;79.23
40245;BME280;25963;42.694;23.600;2023-04-03T08:02:48;94596.13;;;11.20;77.68
40245;BME280;25963;42.694;23.600;2023-04-03T08:05:18;94590.72;;;11.27;80.15
40245;BME280;25963;42.694;23.600;2023-04-03T08:07:44;94585.06;;;11.64;80.43
40245;BME280;25963;42.694;23.600;2023-04-03T08:10:13;94567.06;;;11.78;84.25
40245;BME280;25963;42.694;23.600;2023-04-03T08:12:38;94568.94;;;11.94;83.84
40245;BME280;25963;42.694;23.600;2023-04-03T08:15:04;94575.28;;;12.10;77.32
40245;BME280;25963;42.694;23.600;2023-04-03T08:17:30;94580.97;;;12.36;77.58
40245;BME280;25963;42.694;23.600;2023-04-03T08:19:55;94562.84;;;12.10;76.20
40245;BME280;25963;42.694;23.600;2023-04-03T08:22:20;94563.47;;;12.34;78.61
40245;BME280;25963;42.694;23.600;2023-04-03T08:24:46;94570.53;;;12.46;73.54
40245;BME280;25963;42.694;23.600;2023-04-03T08:27:11;94534.59;;;12.50;80.67
40245;BME280;25963;42.694;23.600;2023-04-03T08:29:37;94569.44;;;12.64;75.81
40245;BME280;25963;42.694;23.600;2023-04-03T08:32:04;94564.06;;;12.59;72.45
40245;BME280;25963;42.694;23.600;2023-04-03T08:34:30;94563.88;;;12.65;76.34
40245;BME280;25963;42.694;23.600;2023-04-03T08:36:56;94549.38;;;12.68;77.45
40245;BME280;25963;42.694;23.600;2023-04-03T08:39:21;94561.97;;;12.77;73.39
40245;BME280;25963;42.694;23.600;2023-04-03T08:41:47;94557.75;;;12.82;77.59
40245;BME280;25963;42.694;23.600;2023-04-03T08:44:25;94565.63;;;12.76;75.68
40245;BME280;25963;42.694;23.600;2023-04-03T08:49:35;94560.28;;;12.93;73.94
40245;BME280;25963;42.694;23.600;2023-04-03T08:52:08;94558.19;;;13.17;73.63
40245;BME280;25963;42.694;23.600;2023-04-03T08:54:57;94556.78;;;13.32;72.31
40245;BME280;25963;42.694;23.600;2023-04-03T08:57:44;94541.63;;;13.49;80.02
40245;BME280;25963;42.694;23.600;2023-04-03T09:02:54;94513.06;;;13.56;75.83
40245;BME280;25963;42.694;23.600;2023-04-03T09:10:41;94531.34;;;13.58;75.22
40245;BME280;25963;42.694;23.600;2023-04-03T09:13:35;94502.50;;;13.61;75.78
40245;BME280;25963;42.694;23.600;2023-04-03T09:16:17;94510.47;;;13.99;75.21
40245;BME280;25963;42.694;23.600;2023-04-03T09:18:50;94515.81;;;14.04;69.96
40245;BME280;25963;42.694;23.600;2023-04-03T09:21:20;94525.72;;;13.81;66.59
40245;BME280;25963;42.694;23.600;2023-04-03T09:23:51;94511.78;;;13.96;67.14
40245;BME280;25963;42.694;23.600;2023-04-03T09:26:42;94512.16;;;13.78;69.76
40245;BME280;25963;42.694;23.600;2023-04-03T09:29:15;94503.88;;;14.01;74.59
40245;BME280;25963;42.694;23.600;2023-04-03T09:31:43;94492.28;;;14.12;68.55
40245;BME280;25963;42.694;23.600;2023-04-03T09:34:29;94492.16;;;13.60;66.49
40245;BME280;25963;42.694;23.600;2023-04-03T09:36:57;94493.56;;;13.40;70.33
40245;BME280;25963;42.694;23.600;2023-04-03T09:39:28;94493.75;;;13.34;71.88
40245;BME280;25963;42.694;23.600;2023-04-03T09:46:58;94490.44;;;14.13;76.78
40245;BME280;25963;42.694;23.600;2023-04-03T09:49:24;94487.63;;;13.92;72.07
40245;BME280;25963;42.694;23.600;2023-04-03T09:51:49;94485.25;;;13.91;72.46
40245;BME280;25963;42.694;23.600;2023-04-03T09:54:44;94484.41;;;13.85;69.90
40245;BME280;25963;42.694;23.600;2023-04-03T09:57:12;94472.88;;;14.07;72.60
40245;BME280;25963;42.694;23.600;2023-04-03T10:00:03;94447.16;;;14.07;73.99
40245;BME280;25963;42.694;23.600;2023-04-03T10:02:39;94472.75;;;14.29;67.40
40245;BME280;25963;42.694;23.600;2023-04-03T10:10:33;94467.72;;;14.27;66.39
40245;BME280;25963;42.694;23.600;2023-04-03T10:13:05;94467.16;;;13.88;69.55
40245;BME280;25963;42.694;23.600;2023-04-03T10:15:38;94449.53;;;14.09;74.04
40245;BME280;25963;42.694;23.600;2023-04-03T10:20:54;94458.25;;;13.99;72.81
40245;BME280;25963;42.694;23.600;2023-04-03T10:23:26;94459.22;;;13.83;75.23
40245;BME280;25963;42.694;23.600;2023-04-03T10:26:08;94458.03;;;13.68;74.55
40245;BME280;25963;42.694;23.600;2023-04-03T10:28:45;94456.09;;;13.59;76.00
40245;BME280;25963;42.694;23.600;2023-04-03T10:31:36;94444.66;;;13.53;75.16
40245;BME280;25963;42.694;23.600;2023-04-03T10:34:24;94451.34;;;13.61;76.88
40245;BME280;25963;42.694;23.600;2023-04-03T10:39:37;94451.03;;;13.52;76.20
40245;BME280;25963;42.694;23.600;2023-04-03T10:48:04;94424.09;;;13.06;74.69
40245;BME280;25963;42.694;23.600;2023-04-03T10:50:36;94423.28;;;12.78;75.24
40245;BME280;25963;42.694;23.600;2023-04-03T11:00:47;94434.53;;;12.91;88.32
40245;BME280;25963;42.694;23.600;2023-04-03T11:06:02;94424.97;;;12.63;90.78
40245;BME280;25963;42.694;23.600;2023-04-03T11:11:06;94418.47;;;12.48;96.76
40245;BME280;25963;42.694;23.600;2023-04-03T11:14:03;94420.53;;;12.24;97.93
40245;BME280;25963;42.694;23.600;2023-04-03T11:16:33;94445.59;;;12.39;100.00
40245;BME280;25963;42.694;23.600;2023-04-03T11:19:17;94432.59;;;12.15;100.00
40245;BME280;25963;42.694;23.600;2023-04-03T11:22:03;94448.94;;;12.12;100.00
40245;BME280;25963;42.694;23.600;2023-04-03T11:24:33;94422.53;;;11.78;100.00
40245;BME280;25963;42.694;23.600;2023-04-03T11:27:04;94450.56;;;11.96;100.00
40245;BME280;25963;42.694;23.600;2023-04-03T11:29:38;94449.75;;;11.96;100.00
40245;BME280;25963;42.694;23.600;2023-04-03T11:35:27;94445.34;;;11.84;100.00
40245;BME280;25963;42.694;23.600;2023-04-03T11:37:53;94430.53;;;11.83;100.00
40245;BME280;25963;42.694;23.600;2023-04-03T11:40:25;94434.88;;;11.73;100.00
40245;BME280;25963;42.694;23.600;2023-04-03T11:43:04;94439.91;;;11.57;100.00
40245;BME280;25963;42.694;23.600;2023-04-03T11:48:41;94441.22;;;11.55;100.00
40245;BME280;25963;42.694;23.600;2023-04-03T11:50:52;94442.16;;;11.32;100.00
40245;BME280;25963;42.694;23.600;2023-04-03T11:53:34;94446.03;;;11.12;100.00
40245;BME280;25963;42.694;23.600;2023-04-03T11:58:33;94444.69;;;10.52;100.00
40245;BME280;25963;42.694;23.600;2023-04-03T12:01:10;94440.81;;;10.43;100.00
40245;BME280;25963;42.694;23.600;2023-04-03T12:08:46;94441.06;;;10.42;100.00
40245;BME280;25963;42.694;23.600;2023-04-03T12:16:31;94440.66;;;9.98;100.00
40245;BME280;25963;42.694;23.600;2023-04-03T12:19:02;94443.88;;;9.76;100.00
40245;BME280;25963;42.694;23.600;2023-04-03T12:26:40;94444.09;;;9.51;100.00
40245;BME280;25963;42.694;23.600;2023-04-03T12:29:37;94450.38;;;9.62;100.00
40245;BME280;25963;42.694;23.600;2023-04-03T12:40:55;94433.91;;;9.43;100.00
40245;BME280;25963;42.694;23.600;2023-04-03T12:46:21;94426.13;;;9.48;100.00
40245;BME280;25963;42.694;23.600;2023-04-03T12:48:53;94412.38;;;9.46;100.00
40245;BME280;25963;42.694;23.600;2023-04-03T12:54:00;94403.22;;;9.37;100.00
40245;BME280;25963;42.694;23.600;2023-04-03T12:56:30;94404.59;;;9.51;100.00
40245;BME280;25963;42.694;23.600;2023-04-03T12:59:18;94402.97;;;9.38;100.00
40245;BME280;25963;42.694;23.600;2023-04-03T13:01:56;94394.72;;;9.23;100.00
40245;BME280;25963;42.694;23.600;2023-04-03T13:04:21;94389.94;;;9.32;100.00
40245;BME280;25963;42.694;23.600;2023-04-03T13:06:47;94383.84;;;9.08;100.00
40245;BME280;25963;42.694;23.600;2023-04-03T13:09:42;94374.84;;;9.16;100.00
40245;BME280;25963;42.694;23.600;2023-04-03T13:12:11;94377.00;;;9.07;100.00
40245;BME280;25963;42.694;23.600;2023-04-03T13:14:37;94390.63;;;9.16;100.00
40245;BME280;25963;42.694;23.600;2023-04-03T13:17:10;94371.34;;;8.80;100.00
40245;BME280;25963;42.694;23.600;2023-04-03T13:19:38;94391.25;;;8.99;100.00
40245;BME280;25963;42.694;23.600;2023-04-03T13:22:30;94393.75;;;8.94;100.00
40245;BME280;25963;42.694;23.600;2023-04-03T13:25:03;94356.91;;;8.82;100.00
40245;BME280;25963;42.694;23.600;2023-04-03T13:27:31;94389.34;;;9.18;100.00
40245;BME280;25963;42.694;23.600;2023-04-03T13:29:59;94374.69;;;8.99;100.00
40245;BME280;25963;42.694;23.600;2023-04-03T13:32:28;94379.50;;;9.02;100.00
40245;BME280;25963;42.694;23.600;2023-04-03T13:34:54;94375.84;;;9.14;100.00
40245;BME280;25963;42.694;23.600;2023-04-03T13:42:34;94379.88;;;9.41;100.00
40245;BME280;25963;42.694;23.600;2023-04-03T13:45:21;94369.81;;;9.37;100.00
40245;BME280;25963;42.694;23.600;2023-04-03T13:47:50;94361.31;;;9.47;100.00
40245;BME280;25963;42.694;23.600;2023-04-03T13:52:59;94348.41;;;9.22;100.00
40245;BME280;25963;42.694;23.600;2023-04-03T13:55:29;94358.00;;;9.40;100.00
40245;BME280;25963;42.694;23.600;2023-04-03T13:58:22;94360.31;;;9.36;100.00
40245;BME280;25963;42.694;23.600;2023-04-03T14:01:11;94366.13;;;9.27;100.00
40245;BME280;25963;42.694;23.600;2023-04-03T14:03:43;94320.09;;;8.94;100.00
40245;BME280;25963;42.694;23.600;2023-04-03T14:06:15;94360.19;;;9.31;100.00
40245;BME280;25963;42.694;23.600;2023-04-03T14:08:42;94329.97;;;9.34;100.00
40245;BME280;25963;42.694;23.600;2023-04-03T14:11:34;94355.03;;;9.48;100.00
40245;BME280;25963;42.694;23.600;2023-04-03T14:14:02;94353.75;;;9.39;100.00
40245;BME280;25963;42.694;23.600;2023-04-03T14:16:32;94347.56;;;9.45;100.00
40245;BME280;25963;42.694;23.600;2023-04-03T14:19:02;94346.69;;;9.40;100.00
40245;BME280;25963;42.694;23.600;2023-04-03T14:21:28;94349.31;;;9.28;100.00
40245;BME280;25963;42.694;23.600;2023-04-03T14:23:54;94347.34;;;9.11;100.00
40245;BME280;25963;42.694;23.600;2023-04-03T14:26:21;94347.16;;;9.25;100.00
40245;BME280;25963;42.694;23.600;2023-04-03T14:28:51;94340.50;;;9.10;100.00
40245;BME280;25963;42.694;23.600;2023-04-03T14:31:18;94342.00;;;9.06;100.00
40245;BME280;25963;42.694;23.600;2023-04-03T14:33:44;94344.06;;;9.16;100.00
40245;BME280;25963;42.694;23.600;2023-04-03T14:36:19;94339.59;;;9.17;100.00
40245;BME280;25963;42.694;23.600;2023-04-03T14:38:45;94342.66;;;9.13;100.00